sensor_id;sensor_type;location;lat;lon;timestamp;pressure;altitude;pressure_sealevel;temperature;humidity
16100;BME280;8154;50.830;12.082;2023-08-01T00:01:01;98173.00;;;25.66;40.76
16100;BME280;8154;50.830;12.082;2023-08-01T00:03:28;98165.06;;;25.71;40.92
16100;BME280;8154;50.830;12.082;2023-08-01T00:05:55;98127.00;;;25.69;40.71
16100;BME280;8154;50.830;12.082;2023-08-01T00:08:21;98158.31;;;25.68;40.97
16100;BME280;8154;50.830;12.082;2023-08-01T00:10:48;98148.47;;;25.57;41.12
16100;BME280;8154;50.830;12.082;2023-08-01T00:13:16;98143.06;;;25.69;41.13
16100;BME280;8154;50.830;12.082;2023-08-01T00:15:43;98160.19;;;25.68;40.80
16100;BME280;8154;50.830;12.082;2023-08-01T00:18:10;98161.47;;;25.65;40.66
16100;BME280;8154;50.830;12.082;2023-08-01T00:20:38;98156.13;;;25.65;40.58
16100;BME280;8154;50.830;12.082;2023-08-01T00:23:05;98157.66;;;25.61;41.03
16100;BME280;8154;50.830;12.082;2023-08-01T00:25:32;98146.38;;;25.59;41.16
16100;BME280;8154;50.830;12.082;2023-08-01T00:27:59;98144.59;;;25.65;41.01
16100;BME280;8154;50.830;12.082;2023-08-01T00:30:27;98155.38;;;25.70;40.71
16100;BME280;8154;50.830;12.082;2023-08-01T00:32:54;98137.47;;;25.70;40.58
16100;BME280;8154;50.830;12.082;2023-08-01T00:35:20;98132.94;;;25.71;40.81
16100;BME280;8154;50.830;12.082;2023-08-01T00:37:47;98133.25;;;25.74;40.64
16100;BME280;8154;50.830;12.082;2023-08-01T00:40:14;98130.34;;;25.76;40.78
16100;BME280;8154;50.830;12.082;2023-08-01T00:42:43;98120.75;;;25.63;40.97
16100;BME280;8154;50.830;12.082;2023-08-01T00:45:10;98121.22;;;25.60;41.20
16100;BME280;8154;50.830;12.082;2023-08-01T00:47:38;98118.66;;;25.65;41.15
16100;BME280;8154;50.830;12.082;2023-08-01T00:50:06;98106.34;;;25.64;40.79
16100;BME280;8154;50.830;12.082;2023-08-01T00:52:33;98100.41;;;25.62;40.59
16100;BME280;8154;50.830;12.082;2023-08-01T00:55:01;98102.44;;;25.72;40.82
16100;BME280;8154;50.830;12.082;2023-08-01T00:57:29;98084.44;;;25.67;41.14
16100;BME280;8154;50.830;12.082;2023-08-01T00:59:56;98084.84;;;25.59;41.15
16100;BME280;8154;50.830;12.082;2023-08-01T01:02:23;98088.09;;;25.61;40.90
16100;BME280;8154;50.830;12.082;2023-08-01T01:04:50;98089.31;;;25.70;40.71
16100;BME280;8154;50.830;12.082;2023-08-01T01:07:17;98092.22;;;25.69;40.76
16100;BME280;8154;50.830;12.082;2023-08-01T01:09:46;98074.63;;;25.73;40.93
16100;BME280;8154;50.830;12.082;2023-08-01T01:12:12;98068.78;;;25.76;40.61
16100;BME280;8154;50.830;12.082;2023-08-01T01:14:39;98069.03;;;25.74;40.62
16100;BME280;8154;50.830;12.082;2023-08-01T01:17:06;98068.72;;;25.71;41.03
16100;BME280;8154;50.830;12.082;2023-08-01T01:19:33;98058.56;;;25.56;41.26
16100;BME280;8154;50.830;12.082;2023-08-01T01:22:04;98052.50;;;25.61;41.08
16100;BME280;8154;50.830;12.082;2023-08-01T01:24:33;98052.00;;;25.64;40.72
16100;BME280;8154;50.830;12.082;2023-08-01T01:27:03;98027.28;;;25.57;40.81
16100;BME280;8154;50.830;12.082;2023-08-01T01:29:32;98049.31;;;25.64;40.95
16100;BME280;8154;50.830;12.082;2023-08-01T01:32:03;98033.66;;;25.56;41.16
16100;BME280;8154;50.830;12.082;2023-08-01T01:34:31;98034.66;;;25.50;41.61
16100;BME280;8154;50.830;12.082;2023-08-01T01:36:58;98023.38;;;25.48;41.43
16100;BME280;8154;50.830;12.082;2023-08-01T01:39:25;98024.13;;;25.60;41.05
16100;BME280;8154;50.830;12.082;2023-08-01T01:41:52;98017.22;;;25.64;40.96
16100;BME280;8154;50.830;12.082;2023-08-01T01:44:19;98015.44;;;25.69;41.02
16100;BME280;8154;50.830;12.082;2023-08-01T01:46:46;97992.25;;;25.58;41.01
16100;BME280;8154;50.830;12.082;2023-08-01T01:49:15;98002.63;;;25.71;40.81
16100;BME280;8154;50.830;12.082;2023-08-01T01:51:42;97992.97;;;25.70;40.90
16100;BME280;8154;50.830;12.082;2023-08-01T01:54:09;97987.13;;;25.73;40.73
16100;BME280;8154;50.830;12.082;2023-08-01T01:56:36;97981.22;;;25.71;40.82
16100;BME280;8154;50.830;12.082;2023-08-01T01:59:04;97970.78;;;25.53;41.27
16100;BME280;8154;50.830;12.082;2023-08-01T02:01:31;97975.72;;;25.45;41.42
16100;BME280;8154;50.830;12.082;2023-08-01T02:03:59;97960.81;;;25.49;41.22
16100;BME280;8154;50.830;12.082;2023-08-01T02:06:25;97967.03;;;25.54;41.20
16100;BME280;8154;50.830;12.082;2023-08-01T02:08:52;97961.78;;;25.59;41.28
16100;BME280;8154;50.830;12.082;2023-08-01T02:11:19;97963.72;;;25.64;41.19
16100;BME280;8154;50.830;12.082;2023-08-01T02:13:46;97957.00;;;25.61;41.31
16100;BME280;8154;50.830;12.082;2023-08-01T02:16:14;97949.50;;;25.63;41.29
16100;BME280;8154;50.830;12.082;2023-08-01T02:18:41;97924.09;;;25.44;41.46
16100;BME280;8154;50.830;12.082;2023-08-01T02:21:07;97940.94;;;25.45;41.61
16100;BME280;8154;50.830;12.082;2023-08-01T02:23:33;97923.94;;;25.51;41.48
16100;BME280;8154;50.830;12.082;2023-08-01T02:26:02;97928.59;;;25.60;41.16
16100;BME280;8154;50.830;12.082;2023-08-01T02:28:28;97919.53;;;25.61;41.01
16100;BME280;8154;50.830;12.082;2023-08-01T02:30:54;97925.19;;;25.65;41.32
16100;BME280;8154;50.830;12.082;2023-08-01T02:33:20;97914.84;;;25.52;41.62
16100;BME280;8154;50.830;12.082;2023-08-01T02:35:47;97910.16;;;25.42;41.83
16100;BME280;8154;50.830;12.082;2023-08-01T02:38:13;97914.03;;;25.51;41.57
16100;BME280;8154;50.830;12.082;2023-08-01T02:40:40;97912.25;;;25.57;41.16
16100;BME280;8154;50.830;12.082;2023-08-01T02:43:06;97909.56;;;25.57;41.33
16100;BME280;8154;50.830;12.082;2023-08-01T02:45:32;97907.69;;;25.57;41.58
16100;BME280;8154;50.830;12.082;2023-08-01T02:47:58;97902.75;;;25.49;41.91
16100;BME280;8154;50.830;12.082;2023-08-01T02:50:26;97894.34;;;25.41;42.05
16100;BME280;8154;50.830;12.082;2023-08-01T02:53:01;97890.38;;;25.43;41.69
16100;BME280;8154;50.830;12.082;2023-08-01T02:55:28;97885.19;;;25.53;41.56
16100;BME280;8154;50.830;12.082;2023-08-01T02:57:54;97897.97;;;25.51;41.54
16100;BME280;8154;50.830;12.082;2023-08-01T03:00:20;97901.47;;;25.52;41.39
16100;BME280;8154;50.830;12.082;2023-08-01T03:02:47;97882.03;;;25.40;41.66
16100;BME280;8154;50.830;12.082;2023-08-01T03:05:13;97894.25;;;25.52;41.56
16100;BME280;8154;50.830;12.082;2023-08-01T03:07:39;97899.63;;;25.52;41.59
16100;BME280;8154;50.830;12.082;2023-08-01T03:10:06;97884.69;;;25.56;41.41
16100;BME280;8154;50.830;12.082;2023-08-01T03:12:32;97878.25;;;25.57;41.39
16100;BME280;8154;50.830;12.082;2023-08-01T03:14:59;97870.25;;;25.57;41.37
16100;BME280;8154;50.830;12.082;2023-08-01T03:17:25;97877.06;;;25.48;41.80
16100;BME280;8154;50.830;12.082;2023-08-01T03:19:52;97871.09;;;25.41;42.06
16100;BME280;8154;50.830;12.082;2023-08-01T03:22:26;97874.50;;;25.37;42.27
16100;BME280;8154;50.830;12.082;2023-08-01T03:24:52;97869.47;;;25.40;41.81
16100;BME280;8154;50.830;12.082;2023-08-01T03:27:19;97856.41;;;25.44;41.87
16100;BME280;8154;50.830;12.082;2023-08-01T03:29:45;97863.94;;;25.47;41.85
16100;BME280;8154;50.830;12.082;2023-08-01T03:32:11;97853.16;;;25.42;41.80
16100;BME280;8154;50.830;12.082;2023-08-01T03:34:39;97847.19;;;25.35;42.19
16100;BME280;8154;50.830;12.082;2023-08-01T03:37:07;97847.19;;;25.35;42.06
16100;BME280;8154;50.830;12.082;2023-08-01T03:39:40;97846.47;;;25.39;42.02
16100;BME280;8154;50.830;12.082;2023-08-01T03:42:06;97850.25;;;25.43;41.91
16100;BME280;8154;50.830;12.082;2023-08-01T03:44:32;97839.88;;;25.47;41.85
16100;BME280;8154;50.830;12.082;2023-08-01T03:46:58;97848.16;;;25.45;41.84
16100;BME280;8154;50.830;12.082;2023-08-01T03:49:25;97837.06;;;25.37;42.45
16100;BME280;8154;50.830;12.082;2023-08-01T03:51:51;97841.28;;;25.33;42.43
16100;BME280;8154;50.830;12.082;2023-08-01T03:54:17;97826.66;;;25.40;42.10
16100;BME280;8154;50.830;12.082;2023-08-01T03:56:44;97827.25;;;25.42;41.95
16100;BME280;8154;50.830;12.082;2023-08-01T03:59:15;97813.06;;;25.42;41.63
16100;BME280;8154;50.830;12.082;2023-08-01T04:01:42;97807.44;;;25.43;41.80
16100;BME280;8154;50.830;12.082;2023-08-01T04:04:09;97796.22;;;25.41;42.08
16100;BME280;8154;50.830;12.082;2023-08-01T04:06:35;97804.59;;;25.50;41.55
16100;BME280;8154;50.830;12.082;2023-08-01T04:09:02;97804.53;;;25.45;41.72
16100;BME280;8154;50.830;12.082;2023-08-01T04:11:28;97788.19;;;25.41;41.90
16100;BME280;8154;50.830;12.082;2023-08-01T04:13:56;97804.50;;;25.40;42.32
16100;BME280;8154;50.830;12.082;2023-08-01T04:16:22;97800.13;;;25.34;42.47
16100;BME280;8154;50.830;12.082;2023-08-01T04:18:49;97783.47;;;25.32;42.19
16100;BME280;8154;50.830;12.082;2023-08-01T04:21:15;97793.28;;;25.43;41.94
16100;BME280;8154;50.830;12.082;2023-08-01T04:23:42;97781.53;;;25.44;41.89
16100;BME280;8154;50.830;12.082;2023-08-01T04:26:08;97779.66;;;25.44;41.96
16100;BME280;8154;50.830;12.082;2023-08-01T04:28:35;97778.09;;;25.48;41.58
16100;BME280;8154;50.830;12.082;2023-08-01T04:31:01;97765.22;;;25.45;41.86
16100;BME280;8154;50.830;12.082;2023-08-01T04:33:27;97766.72;;;25.36;42.41
16100;BME280;8154;50.830;12.082;2023-08-01T04:35:54;97771.81;;;25.38;42.29
16100;BME280;8154;50.830;12.082;2023-08-01T04:38:23;97761.38;;;25.36;42.11
16100;BME280;8154;50.830;12.082;2023-08-01T04:40:49;97754.72;;;25.39;41.88
16100;BME280;8154;50.830;12.082;2023-08-01T04:43:15;97753.97;;;25.43;41.76
16100;BME280;8154;50.830;12.082;2023-08-01T04:45:41;97757.78;;;25.47;41.83
16100;BME280;8154;50.830;12.082;2023-08-01T04:48:07;97754.28;;;25.47;41.83
16100;BME280;8154;50.830;12.082;2023-08-01T04:50:34;97756.97;;;25.47;41.85
16100;BME280;8154;50.830;12.082;2023-08-01T04:53:00;97756.13;;;25.46;42.04
16100;BME280;8154;50.830;12.082;2023-08-01T04:55:27;97752.09;;;25.44;41.78
16100;BME280;8154;50.830;12.082;2023-08-01T04:57:54;97750.25;;;25.44;42.00
16100;BME280;8154;50.830;12.082;2023-08-01T05:00:20;97747.06;;;25.47;41.93
16100;BME280;8154;50.830;12.082;2023-08-01T05:02:46;97731.34;;;25.51;42.12
16100;BME280;8154;50.830;12.082;2023-08-01T05:05:13;97729.13;;;25.48;42.02
16100;BME280;8154;50.830;12.082;2023-08-01T05:07:39;97736.38;;;25.47;41.87
16100;BME280;8154;50.830;12.082;2023-08-01T05:10:06;97721.63;;;25.45;42.10
16100;BME280;8154;50.830;12.082;2023-08-01T05:12:32;97726.34;;;25.38;42.48
16100;BME280;8154;50.830;12.082;2023-08-01T05:14:58;97721.41;;;25.30;42.75
16100;BME280;8154;50.830;12.082;2023-08-01T05:17:24;97739.41;;;25.34;42.32
16100;BME280;8154;50.830;12.082;2023-08-01T05:19:51;97733.56;;;25.37;42.62
16100;BME280;8154;50.830;12.082;2023-08-01T05:22:17;97730.63;;;25.39;42.33
16100;BME280;8154;50.830;12.082;2023-08-01T05:24:43;97732.03;;;25.41;42.32
16100;BME280;8154;50.830;12.082;2023-08-01T05:27:09;97724.78;;;25.42;42.39
16100;BME280;8154;50.830;12.082;2023-08-01T05:29:36;97730.81;;;25.32;42.74
16100;BME280;8154;50.830;12.082;2023-08-01T05:32:02;97733.97;;;25.29;43.00
16100;BME280;8154;50.830;12.082;2023-08-01T05:34:29;97735.44;;;25.37;42.15
16100;BME280;8154;50.830;12.082;2023-08-01T05:36:55;97733.56;;;25.37;42.42
16100;BME280;8154;50.830;12.082;2023-08-01T05:39:21;97739.47;;;25.39;42.43
16100;BME280;8154;50.830;12.082;2023-08-01T05:41:48;97739.97;;;25.36;42.41
16100;BME280;8154;50.830;12.082;2023-08-01T05:44:14;97749.47;;;25.27;42.82
16100;BME280;8154;50.830;12.082;2023-08-01T05:46:40;97750.38;;;25.16;43.23
16100;BME280;8154;50.830;12.082;2023-08-01T05:49:07;97729.81;;;25.17;42.72
16100;BME280;8154;50.830;12.082;2023-08-01T05:51:33;97743.97;;;25.34;42.75
16100;BME280;8154;50.830;12.082;2023-08-01T05:53:59;97756.53;;;25.33;42.66
16100;BME280;8154;50.830;12.082;2023-08-01T05:56:27;97757.63;;;25.37;42.36
16100;BME280;8154;50.830;12.082;2023-08-01T05:58:54;97756.84;;;25.20;43.07
16100;BME280;8154;50.830;12.082;2023-08-01T06:01:21;97756.53;;;25.17;43.51
16100;BME280;8154;50.830;12.082;2023-08-01T06:03:47;97735.81;;;25.07;42.83
16100;BME280;8154;50.830;12.082;2023-08-01T06:06:17;97767.69;;;25.30;42.84
16100;BME280;8154;50.830;12.082;2023-08-01T06:08:45;97732.72;;;25.15;42.62
16100;BME280;8154;50.830;12.082;2023-08-01T06:11:12;97761.63;;;25.35;42.41
16100;BME280;8154;50.830;12.082;2023-08-01T06:13:39;97772.06;;;25.36;42.88
16100;BME280;8154;50.830;12.082;2023-08-01T06:16:08;97763.22;;;25.36;43.05
16100;BME280;8154;50.830;12.082;2023-08-01T06:18:35;97763.63;;;25.28;43.51
16100;BME280;8154;50.830;12.082;2023-08-01T06:21:02;97766.34;;;25.11;43.46
16100;BME280;8154;50.830;12.082;2023-08-01T06:23:28;97767.34;;;25.27;43.08
16100;BME280;8154;50.830;12.082;2023-08-01T06:25:55;97779.16;;;25.31;42.94
16100;BME280;8154;50.830;12.082;2023-08-01T06:28:21;97766.16;;;25.34;42.79
16100;BME280;8154;50.830;12.082;2023-08-01T06:30:49;97765.91;;;25.36;42.72
16100;BME280;8154;50.830;12.082;2023-08-01T06:33:16;97775.88;;;25.24;43.46
16100;BME280;8154;50.830;12.082;2023-08-01T06:35:42;97759.94;;;25.12;43.79
16100;BME280;8154;50.830;12.082;2023-08-01T06:38:09;97757.09;;;25.19;43.78
16100;BME280;8154;50.830;12.082;2023-08-01T06:40:35;97761.19;;;25.26;42.97
16100;BME280;8154;50.830;12.082;2023-08-01T06:43:02;97760.22;;;25.32;43.03
16100;BME280;8154;50.830;12.082;2023-08-01T06:45:28;97763.47;;;25.34;42.52
16100;BME280;8154;50.830;12.082;2023-08-01T06:47:55;97777.25;;;25.26;43.21
16100;BME280;8154;50.830;12.082;2023-08-01T06:50:21;97779.72;;;25.11;43.67
16100;BME280;8154;50.830;12.082;2023-08-01T06:52:47;97776.28;;;25.16;43.68
16100;BME280;8154;50.830;12.082;2023-08-01T06:55:14;97768.69;;;25.24;43.00
16100;BME280;8154;50.830;12.082;2023-08-01T06:57:41;97780.47;;;25.28;42.85
16100;BME280;8154;50.830;12.082;2023-08-01T07:00:08;97775.47;;;25.32;43.16
16100;BME280;8154;50.830;12.082;2023-08-01T07:02:35;97786.41;;;25.30;43.39
16100;BME280;8154;50.830;12.082;2023-08-01T07:05:01;97785.38;;;25.15;43.61
16100;BME280;8154;50.830;12.082;2023-08-01T07:07:28;97774.94;;;25.13;43.82
16100;BME280;8154;50.830;12.082;2023-08-01T07:09:54;97769.72;;;25.23;43.19
16100;BME280;8154;50.830;12.082;2023-08-01T07:12:21;97771.16;;;25.31;43.38
16100;BME280;8154;50.830;12.082;2023-08-01T07:14:47;97786.25;;;25.37;43.43
16100;BME280;8154;50.830;12.082;2023-08-01T07:17:14;97788.97;;;25.42;43.31
16100;BME280;8154;50.830;12.082;2023-08-01T07:19:41;97770.94;;;25.32;43.45
16100;BME280;8154;50.830;12.082;2023-08-01T07:22:08;97762.91;;;25.32;43.39
16100;BME280;8154;50.830;12.082;2023-08-01T07:24:34;97769.16;;;25.21;43.93
16100;BME280;8154;50.830;12.082;2023-08-01T07:27:04;97782.72;;;25.15;44.15
16100;BME280;8154;50.830;12.082;2023-08-01T07:29:30;97780.16;;;25.25;43.75
16100;BME280;8154;50.830;12.082;2023-08-01T07:31:57;97789.31;;;25.29;43.85
16100;BME280;8154;50.830;12.082;2023-08-01T07:34:24;97758.84;;;25.30;43.40
16100;BME280;8154;50.830;12.082;2023-08-01T07:36:50;97752.13;;;25.27;43.65
16100;BME280;8154;50.830;12.082;2023-08-01T07:39:17;97756.47;;;25.12;44.04
16100;BME280;8154;50.830;12.082;2023-08-01T07:41:43;97760.91;;;25.06;44.31
16100;BME280;8154;50.830;12.082;2023-08-01T07:44:09;97763.19;;;25.14;44.17
16100;BME280;8154;50.830;12.082;2023-08-01T07:46:35;97759.75;;;25.19;43.93
16100;BME280;8154;50.830;12.082;2023-08-01T07:49:01;97762.50;;;25.24;43.84
16100;BME280;8154;50.830;12.082;2023-08-01T07:51:28;97761.19;;;25.26;43.84
16100;BME280;8154;50.830;12.082;2023-08-01T07:53:57;97756.53;;;25.17;44.06
16100;BME280;8154;50.830;12.082;2023-08-01T07:56:23;97750.31;;;25.11;44.10
16100;BME280;8154;50.830;12.082;2023-08-01T07:58:49;97723.22;;;25.03;44.32
16100;BME280;8154;50.830;12.082;2023-08-01T08:01:16;97744.38;;;25.26;43.94
16100;BME280;8154;50.830;12.082;2023-08-01T08:03:42;97746.63;;;25.17;43.86
16100;BME280;8154;50.830;12.082;2023-08-01T08:06:08;97744.38;;;25.09;44.41
16100;BME280;8154;50.830;12.082;2023-08-01T08:08:35;97739.53;;;25.06;44.44
16100;BME280;8154;50.830;12.082;2023-08-01T08:11:02;97731.59;;;25.11;44.44
16100;BME280;8154;50.830;12.082;2023-08-01T08:13:29;97742.28;;;25.11;44.43
16100;BME280;8154;50.830;12.082;2023-08-01T08:15:56;97729.41;;;25.08;44.53
16100;BME280;8154;50.830;12.082;2023-08-01T08:18:23;97736.63;;;25.08;44.51
16100;BME280;8154;50.830;12.082;2023-08-01T08:20:49;97727.31;;;25.10;44.54
16100;BME280;8154;50.830;12.082;2023-08-01T08:23:16;97710.47;;;25.10;44.62
16100;BME280;8154;50.830;12.082;2023-08-01T08:25:43;97699.75;;;25.10;44.68
16100;BME280;8154;50.830;12.082;2023-08-01T08:28:33;97691.41;;;25.06;44.66
16100;BME280;8154;50.830;12.082;2023-08-01T08:31:01;97690.13;;;25.09;44.71
16100;BME280;8154;50.830;12.082;2023-08-01T08:33:29;97697.59;;;25.07;44.85
16100;BME280;8154;50.830;12.082;2023-08-01T08:35:55;97707.47;;;25.06;44.47
16100;BME280;8154;50.830;12.082;2023-08-01T08:38:22;97716.53;;;25.05;44.82
16100;BME280;8154;50.830;12.082;2023-08-01T08:43:27;97719.47;;;25.04;45.05
16100;BME280;8154;50.830;12.082;2023-08-01T08:45:57;97712.75;;;25.01;45.04
16100;BME280;8154;50.830;12.082;2023-08-01T08:48:26;97707.16;;;25.03;45.14
16100;BME280;8154;50.830;12.082;2023-08-01T08:50:54;97692.75;;;25.04;44.77
16100;BME280;8154;50.830;12.082;2023-08-01T08:53:23;97671.78;;;24.96;45.12
16100;BME280;8154;50.830;12.082;2023-08-01T08:55:53;97670.53;;;25.03;44.98
16100;BME280;8154;50.830;12.082;2023-08-01T08:58:19;97678.56;;;25.03;45.11
16100;BME280;8154;50.830;12.082;2023-08-01T09:00:49;97686.03;;;25.01;45.00
16100;BME280;8154;50.830;12.082;2023-08-01T09:03:19;97700.94;;;24.97;45.10
16100;BME280;8154;50.830;12.082;2023-08-01T09:05:50;97709.19;;;24.96;44.89
16100;BME280;8154;50.830;12.082;2023-08-01T09:08:21;97710.00;;;24.96;44.86
16100;BME280;8154;50.830;12.082;2023-08-01T09:10:48;97705.72;;;24.95;45.15
16100;BME280;8154;50.830;12.082;2023-08-01T09:13:15;97716.97;;;24.97;44.94
16100;BME280;8154;50.830;12.082;2023-08-01T09:15:42;97729.22;;;24.93;44.96
16100;BME280;8154;50.830;12.082;2023-08-01T09:18:11;97734.06;;;24.96;45.03
16100;BME280;8154;50.830;12.082;2023-08-01T09:20:56;97720.69;;;24.96;44.72
16100;BME280;8154;50.830;12.082;2023-08-01T09:23:28;97729.22;;;24.93;44.61
16100;BME280;8154;50.830;12.082;2023-08-01T09:25:56;97720.13;;;24.94;44.77
16100;BME280;8154;50.830;12.082;2023-08-01T09:28:23;97723.38;;;24.96;44.53
16100;BME280;8154;50.830;12.082;2023-08-01T09:30:54;97699.75;;;24.88;44.96
16100;BME280;8154;50.830;12.082;2023-08-01T09:33:23;97714.53;;;24.96;45.03
16100;BME280;8154;50.830;12.082;2023-08-01T09:35:52;97697.16;;;24.93;44.83
16100;BME280;8154;50.830;12.082;2023-08-01T09:38:18;97702.97;;;24.90;44.56
16100;BME280;8154;50.830;12.082;2023-08-01T09:40:46;97695.59;;;24.97;44.97
16100;BME280;8154;50.830;12.082;2023-08-01T09:43:14;97696.16;;;24.99;44.91
16100;BME280;8154;50.830;12.082;2023-08-01T09:45:53;97679.63;;;25.02;44.63
16100;BME280;8154;50.830;12.082;2023-08-01T09:48:32;97636.16;;;24.69;44.87
16100;BME280;8154;50.830;12.082;2023-08-01T09:51:09;97674.25;;;24.81;44.79
16100;BME280;8154;50.830;12.082;2023-08-01T09:53:50;97676.03;;;24.92;44.82
16100;BME280;8154;50.830;12.082;2023-08-01T09:56:28;97666.38;;;24.91;44.88
16100;BME280;8154;50.830;12.082;2023-08-01T09:58:57;97666.69;;;24.94;44.99
16100;BME280;8154;50.830;12.082;2023-08-01T10:01:26;97663.69;;;24.91;44.84
16100;BME280;8154;50.830;12.082;2023-08-01T10:03:56;97632.50;;;24.75;44.80
16100;BME280;8154;50.830;12.082;2023-08-01T10:06:32;97664.44;;;24.86;44.64
16100;BME280;8154;50.830;12.082;2023-08-01T10:08:59;97722.44;;;24.86;44.84
16100;BME280;8154;50.830;12.082;2023-08-01T10:11:27;97776.84;;;24.80;44.91
16100;BME280;8154;50.830;12.082;2023-08-01T10:13:56;97786.72;;;24.79;44.83
16100;BME280;8154;50.830;12.082;2023-08-01T10:16:24;97780.63;;;24.84;44.93
16100;BME280;8154;50.830;12.082;2023-08-01T10:18:51;97787.28;;;24.81;44.89
16100;BME280;8154;50.830;12.082;2023-08-01T10:21:18;97780.00;;;24.77;44.52
16100;BME280;8154;50.830;12.082;2023-08-01T10:23:49;97802.34;;;24.87;44.76
16100;BME280;8154;50.830;12.082;2023-08-01T10:26:16;97802.88;;;24.89;44.50
16100;BME280;8154;50.830;12.082;2023-08-01T10:28:50;97799.97;;;24.91;44.61
16100;BME280;8154;50.830;12.082;2023-08-01T10:31:18;97797.97;;;24.98;44.54
16100;BME280;8154;50.830;12.082;2023-08-01T10:33:47;97803.56;;;24.96;44.56
16100;BME280;8154;50.830;12.082;2023-08-01T10:36:14;97794.72;;;24.96;44.31
16100;BME280;8154;50.830;12.082;2023-08-01T10:38:51;97805.16;;;24.97;44.30
16100;BME280;8154;50.830;12.082;2023-08-01T10:41:35;97808.91;;;24.96;44.48
16100;BME280;8154;50.830;12.082;2023-08-01T10:44:12;97818.75;;;24.96;44.33
16100;BME280;8154;50.830;12.082;2023-08-01T10:46:49;97813.66;;;24.94;44.41
16100;BME280;8154;50.830;12.082;2023-08-01T10:49:39;97820.66;;;24.95;44.50
16100;BME280;8154;50.830;12.082;2023-08-01T10:52:17;97820.66;;;24.95;44.36
16100;BME280;8154;50.830;12.082;2023-08-01T10:54:44;97810.66;;;24.91;44.11
16100;BME280;8154;50.830;12.082;2023-08-01T10:57:17;97811.56;;;24.96;44.40
16100;BME280;8154;50.830;12.082;2023-08-01T10:59:46;97815.84;;;24.97;44.20
16100;BME280;8154;50.830;12.082;2023-08-01T11:02:19;97809.38;;;24.93;44.24
16100;BME280;8154;50.830;12.082;2023-08-01T11:05:04;97815.84;;;24.97;44.33
16100;BME280;8154;50.830;12.082;2023-08-01T11:07:31;97809.38;;;24.93;44.14
16100;BME280;8154;50.830;12.082;2023-08-01T11:10:06;97816.91;;;24.96;44.34
16100;BME280;8154;50.830;12.082;2023-08-01T11:12:35;97805.16;;;24.97;44.16
16100;BME280;8154;50.830;12.082;2023-08-01T11:15:04;97808.06;;;24.96;44.49
16100;BME280;8154;50.830;12.082;2023-08-01T11:17:32;97807.84;;;24.97;44.21
16100;BME280;8154;50.830;12.082;2023-08-01T11:22:31;97811.31;;;24.98;44.37
16100;BME280;8154;50.830;12.082;2023-08-01T11:24:59;97816.09;;;24.96;44.11
16100;BME280;8154;50.830;12.082;2023-08-01T11:27:26;97823.31;;;24.95;44.08
16100;BME280;8154;50.830;12.082;2023-08-01T11:29:53;97818.75;;;24.96;44.08
16100;BME280;8154;50.830;12.082;2023-08-01T11:32:20;97823.09;;;24.97;44.35
16100;BME280;8154;50.830;12.082;2023-08-01T11:34:47;97821.69;;;24.94;44.23
16100;BME280;8154;50.830;12.082;2023-08-01T11:37:15;97823.78;;;24.92;44.37
16100;BME280;8154;50.830;12.082;2023-08-01T11:39:42;97826.44;;;24.92;44.24
16100;BME280;8154;50.830;12.082;2023-08-01T11:42:16;97816.25;;;24.89;44.19
16100;BME280;8154;50.830;12.082;2023-08-01T11:44:47;97821.94;;;24.93;44.43
16100;BME280;8154;50.830;12.082;2023-08-01T11:47:14;97828.88;;;24.94;44.32
16100;BME280;8154;50.830;12.082;2023-08-01T11:49:48;97823.47;;;24.89;44.44
16100;BME280;8154;50.830;12.082;2023-08-01T11:52:27;97830.44;;;24.90;44.51
16100;BME280;8154;50.830;12.082;2023-08-01T11:54:55;97838.53;;;24.95;44.16
16100;BME280;8154;50.830;12.082;2023-08-01T11:57:22;97831.56;;;24.94;44.20
16100;BME280;8154;50.830;12.082;2023-08-01T11:59:57;97834.47;;;24.92;44.17
16100;BME280;8154;50.830;12.082;2023-08-01T12:02:28;97832.84;;;24.91;44.36
16100;BME280;8154;50.830;12.082;2023-08-01T12:04:59;97829.63;;;24.89;44.36
16100;BME280;8154;50.830;12.082;2023-08-01T12:07:26;97833.34;;;24.88;44.05
16100;BME280;8154;50.830;12.082;2023-08-01T12:10:00;97841.13;;;24.90;44.16
16100;BME280;8154;50.830;12.082;2023-08-01T12:12:29;97836.84;;;24.89;44.15
16100;BME280;8154;50.830;12.082;2023-08-01T12:14:55;97837.09;;;24.87;44.31
16100;BME280;8154;50.830;12.082;2023-08-01T12:17:22;97844.63;;;24.90;44.25
16100;BME280;8154;50.830;12.082;2023-08-01T12:19:49;97843.22;;;24.88;44.00
16100;BME280;8154;50.830;12.082;2023-08-01T12:22:15;97831.25;;;24.90;44.11
16100;BME280;8154;50.830;12.082;2023-08-01T12:24:42;97825.91;;;24.90;44.29
16100;BME280;8154;50.830;12.082;2023-08-01T12:27:09;97839.56;;;24.94;44.37
16100;BME280;8154;50.830;12.082;2023-08-01T12:29:36;97831.78;;;24.92;44.32
16100;BME280;8154;50.830;12.082;2023-08-01T12:32:03;97837.38;;;24.91;44.28
16100;BME280;8154;50.830;12.082;2023-08-01T12:34:30;97831.25;;;24.90;44.23
16100;BME280;8154;50.830;12.082;2023-08-01T12:36:57;97839.28;;;24.90;44.17
16100;BME280;8154;50.830;12.082;2023-08-01T12:39:24;97839.81;;;24.92;43.85
16100;BME280;8154;50.830;12.082;2023-08-01T12:41:52;97816.97;;;24.85;44.06
16100;BME280;8154;50.830;12.082;2023-08-01T12:44:22;97826.00;;;24.95;44.13
16100;BME280;8154;50.830;12.082;2023-08-01T12:46:49;97824.34;;;24.94;43.97
16100;BME280;8154;50.830;12.082;2023-08-01T12:49:18;97827.94;;;25.00;43.79
16100;BME280;8154;50.830;12.082;2023-08-01T12:51:44;97820.47;;;25.02;43.74
16100;BME280;8154;50.830;12.082;2023-08-01T12:54:12;97817.00;;;25.01;43.99
16100;BME280;8154;50.830;12.082;2023-08-01T12:56:39;97813.66;;;24.94;44.16
16100;BME280;8154;50.830;12.082;2023-08-01T12:59:05;97815.22;;;24.90;44.14
16100;BME280;8154;50.830;12.082;2023-08-01T13:01:32;97821.94;;;24.93;43.86
16100;BME280;8154;50.830;12.082;2023-08-01T13:03:58;97799.09;;;24.85;43.85
16100;BME280;8154;50.830;12.082;2023-08-01T13:06:24;97820.56;;;24.90;44.27
16100;BME280;8154;50.830;12.082;2023-08-01T13:08:51;97818.38;;;24.87;44.04